Time;durP1;ratioP1;P1;durP2;ratioP2;P2;SDS_P1;SDS_P2;PMS_P1;PMS_P2;Temp;Humidity;BMP_temperature;BMP_pressure;BME280_temperature;BME280_humidity;BME280_pressure;Samples;Min_cycle;Max_cycle;Signal;HPM_P1;HPM_P2
2023/04/08 00:02:38;;;;;;;15.80;8.68;;;;;;;6.64;61.77;97892.41;12803695;23;20020;-79
2023/04/08 00:07:59;;;;;;;13.75;9.60;;;;;;;6.62;63.11;97885.97;12806634;23;20028;-78
2023/04/08 00:13:20;;;;;;;15.80;10.68;;;;;;;6.54;64.80;97881.22;12845774;23;20023;-78
2023/04/08 00:18:41;;;;;;;15.60;10.52;;;;;;;6.50;63.40;97883.66;12845901;23;20012;-78
2023/04/08 00:24:02;;;;;;;16.35;11.02;;;;;;;6.48;63.22;97893.84;12845502;23;20378;-78
2023/04/08 00:29:23;;;;;;;13.75;10.18;;;;;;;6.49;62.62;97884.22;12804587;23;20027;-78
2023/04/08 00:34:44;;;;;;;15.98;10.57;;;;;;;6.48;63.29;97888.28;12825681;23;20020;-78
2023/04/08 00:40:06;;;;;;;15.15;10.10;;;;;;;6.52;63.43;97896.94;12824780;23;20087;-79
2023/04/08 00:45:27;;;;;;;16.38;10.45;;;;;;;6.52;63.75;97889.34;12827046;23;20040;-79
2023/04/08 00:50:48;;;;;;;13.05;10.00;;;;;;;6.48;63.20;97899.38;12806495;23;20017;-79
2023/04/08 00:56:08;;;;;;;15.20;9.88;;;;;;;6.42;64.20;97902.38;12805446;23;20024;-79
2023/04/08 01:01:39;;;;;;;10.88;8.10;;;;;;;6.42;64.56;97882.94;12807110;23;20013;-79
2023/04/08 01:07:16;;;;;;;12.32;8.27;;;;;;;6.36;64.96;97881.69;12809914;23;20023;-79
2023/04/08 01:12:40;;;;;;;10.23;7.25;;;;;;;6.30;64.54;97890.25;12826546;23;20028;-78
2023/04/08 01:18:04;;;;;;;8.55;6.28;;;;;;;6.33;65.04;97880.78;12825391;23;20024;-79
2023/04/08 01:23:45;;;;;;;8.50;6.40;;;;;;;6.21;65.18;97874.94;12806747;23;20020;-79
2023/04/08 01:29:06;;;;;;;10.43;7.20;;;;;;;6.21;65.64;97876.97;12825622;23;20025;-78
2023/04/08 01:34:27;;;;;;;10.00;7.18;;;;;;;6.23;65.40;97882.69;12845055;23;20028;-79
2023/04/08 01:39:49;;;;;;;10.10;7.57;;;;;;;6.28;66.62;97888.03;12845513;23;20017;-78
2023/04/08 01:45:10;;;;;;;12.13;8.52;;;;;;;6.30;66.04;97896.50;12805035;23;20435;-79
2023/04/08 01:50:31;;;;;;;11.25;8.50;;;;;;;6.30;65.68;97885.44;12825732;23;20044;-78
2023/04/08 01:55:56;;;;;;;14.32;9.75;;;;;;;6.31;66.91;97886.16;12845506;23;20044;-78
2023/04/08 02:01:17;;;;;;;13.57;9.55;;;;;;;6.29;65.81;97888.75;12825139;23;20017;-78
2023/04/08 02:06:38;;;;;;;12.82;9.52;;;;;;;6.24;66.16;97900.78;12766825;23;20021;-79
2023/04/08 02:12:00;;;;;;;14.70;9.27;;;;;;;6.22;66.56;97890.28;12784474;23;20012;-79
2023/04/08 02:17:49;;;;;;;12.35;8.98;;;;;;;6.27;66.21;97889.34;12764270;23;20021;-79
2023/04/08 02:23:30;;;;;;;11.32;9.13;;;;;;;6.19;67.16;97896.94;12810994;23;20017;-79
2023/04/08 02:28:51;;;;;;;13.70;9.35;;;;;;;6.19;66.38;97894.16;12762423;23;20021;-79
2023/04/08 02:34:15;;;;;;;13.32;8.65;;;;;;;6.23;66.74;97888.22;12804694;23;20029;-78
2023/04/08 02:39:36;;;;;;;11.77;8.63;;;;;;;6.23;67.19;97891.00;12762655;23;20466;-78
2023/04/08 02:44:57;;;;;;;11.02;8.05;;;;;;;6.24;67.19;97890.44;12784301;23;20458;-79
2023/04/08 02:50:19;;;;;;;10.70;7.63;;;;;;;6.17;67.62;97893.97;12802931;23;20013;-79
2023/04/08 02:55:40;;;;;;;9.93;7.03;;;;;;;6.15;67.86;97912.47;12741696;23;20090;-79
2023/04/08 03:01:01;;;;;;;9.48;6.55;;;;;;;6.14;68.07;97908.22;12804527;23;20013;-79
2023/04/08 03:06:22;;;;;;;8.82;5.85;;;;;;;6.18;67.78;97906.56;12771844;23;20432;-78
2023/04/08 03:11:43;;;;;;;8.18;5.57;;;;;;;6.16;67.50;97909.13;12784917;23;20028;-78
2023/04/08 03:17:04;;;;;;;5.78;4.85;;;;;;;6.13;67.73;97904.72;12782259;23;20351;-78
2023/04/08 03:22:25;;;;;;;6.97;5.35;;;;;;;6.09;68.17;97915.47;12818830;23;20069;-78
2023/04/08 03:27:46;;;;;;;7.80;5.38;;;;;;;6.14;69.19;97906.19;12784761;23;20017;-79
2023/04/08 03:33:08;;;;;;;9.35;5.25;;;;;;;6.11;68.12;97910.09;12764691;23;20470;-79
2023/04/08 03:38:29;;;;;;;5.50;4.35;;;;;;;6.16;67.95;97905.63;12805527;23;20013;-79
2023/04/08 03:43:50;;;;;;;4.63;3.72;;;;;;;6.08;68.56;97910.47;12745535;23;20439;-78
2023/04/08 03:49:11;;;;;;;5.22;4.38;;;;;;;6.00;68.88;97908.47;12765057;23;20024;-79
2023/04/08 03:54:31;;;;;;;7.25;4.97;;;;;;;6.07;69.15;97906.22;12803666;23;20017;-78
2023/04/08 03:59:52;;;;;;;5.95;4.22;;;;;;;6.07;69.49;97912.50;12782085;23;20017;-79
2023/04/08 04:05:14;;;;;;;5.97;4.20;;;;;;;6.12;68.85;97922.66;12804033;23;20152;-78
2023/04/08 04:10:34;;;;;;;5.97;4.57;;;;;;;6.06;69.70;97935.22;12802897;23;20016;-78
2023/04/08 04:15:56;;;;;;;7.13;4.28;;;;;;;6.08;69.27;97935.41;12867694;23;20024;-79
2023/04/08 04:21:17;;;;;;;4.50;3.63;;;;;;;6.12;69.72;97930.22;12831415;23;20023;-79
2023/04/08 04:26:39;;;;;;;5.47;3.72;;;;;;;6.16;69.19;97938.88;12810228;23;20092;-79
2023/04/08 04:32:00;;;;;;;4.50;3.70;;;;;;;6.13;69.69;97951.09;12831517;23;20031;-79
2023/04/08 04:37:22;;;;;;;6.07;3.80;;;;;;;6.20;69.61;97947.56;12836277;23;20103;-79
2023/04/08 04:42:44;;;;;;;6.47;4.13;;;;;;;6.23;69.63;97958.28;12802373;23;20040;-79
2023/04/08 04:48:05;;;;;;;5.03;3.90;;;;;;;6.24;69.92;97965.28;12831160;23;20075;-79
2023/04/08 04:53:26;;;;;;;6.53;3.88;;;;;;;6.25;69.71;97961.22;12832391;23;20013;-79
2023/04/08 04:58:47;;;;;;;4.97;3.47;;;;;;;6.24;70.41;97970.09;12831830;23;20039;-79
2023/04/08 05:04:08;;;;;;;6.70;4.25;;;;;;;6.26;70.27;97973.03;12811208;23;20051;-80
2023/04/08 05:09:29;;;;;;;5.15;3.80;;;;;;;6.30;70.10;97973.41;12830865;23;20020;-80
2023/04/08 05:14:50;;;;;;;5.43;4.18;;;;;;;6.35;70.37;97980.03;12812675;23;20436;-80
2023/04/08 05:20:11;;;;;;;5.22;4.13;;;;;;;6.38;70.38;97976.16;12809974;23;20032;-78
2023/04/08 05:25:32;;;;;;;6.00;4.10;;;;;;;6.37;70.04;97989.28;12820075;23;20017;-78
2023/04/08 05:30:53;;;;;;;4.78;3.67;;;;;;;6.38;70.11;97987.97;12840176;23;20016;-78
2023/04/08 05:36:14;;;;;;;4.95;3.55;;;;;;;6.43;70.16;97998.13;12842262;23;20021;-78
2023/04/08 05:41:35;;;;;;;4.88;4.20;;;;;;;6.37;70.18;97992.06;12821273;23;20024;-78
2023/04/08 05:46:57;;;;;;;5.43;3.60;;;;;;;6.41;70.69;97997.22;12824744;23;20032;-77
2023/04/08 05:52:18;;;;;;;4.50;3.70;;;;;;;6.39;70.14;97997.78;12822432;23;20455;-77
2023/04/08 05:57:39;;;;;;;3.80;3.25;;;;;;;6.37;70.46;98008.69;12839546;23;20086;-77
2023/04/08 06:03:00;;;;;;;4.70;3.90;;;;;;;6.38;70.76;98007.41;12840315;23;20036;-77
2023/04/08 06:08:22;;;;;;;4.35;3.47;;;;;;;6.42;70.44;98010.50;12819018;23;20020;-77
2023/04/08 06:13:43;;;;;;;4.20;3.33;;;;;;;6.41;70.59;98022.91;12821159;23;20443;-78
2023/04/08 06:19:04;;;;;;;4.80;3.55;;;;;;;6.45;70.29;98011.41;12824059;23;20017;-79
2023/04/08 06:36:56;;;;;;;5.80;3.72;;;;;;;6.56;70.99;98025.63;12810376;23;20032;-79
2023/04/08 06:42:17;;;;;;;4.82;3.85;;;;;;;6.64;71.22;98033.16;12807224;23;20017;-82
2023/04/08 06:47:59;;;;;;;4.32;3.25;;;;;;;6.67;71.27;98032.78;12771404;23;20017;-81
2023/04/08 06:53:23;;;;;;;5.25;3.70;;;;;;;6.74;71.34;98047.91;12754561;23;20406;-81
2023/04/08 06:59:14;;;;;;;7.07;3.55;;;;;;;6.78;71.32;98049.00;12797429;23;20053;-87
2023/04/08 07:10:52;;;;;;;4.20;3.10;;;;;;;6.89;71.22;98073.56;12829168;23;19916;-77
2023/04/08 07:16:13;;;;;;;4.55;3.40;;;;;;;6.78;70.91;98070.47;12775586;23;20024;-79
2023/04/08 07:21:34;;;;;;;3.78;2.83;;;;;;;6.84;70.95;98076.53;12782191;23;20069;-78
2023/04/08 07:26:55;;;;;;;4.55;3.05;;;;;;;6.95;71.44;98086.47;12762561;23;20091;-77
2023/04/08 07:32:17;;;;;;;3.00;2.50;;;;;;;7.14;71.03;98090.28;12735226;23;20017;-78
2023/04/08 07:37:38;;;;;;;3.17;2.50;;;;;;;7.39;71.09;98097.91;12780693;23;20088;-77
2023/04/08 07:43:00;;;;;;;4.10;2.78;;;;;;;7.34;70.24;98090.53;12761205;23;20048;-81
2023/04/08 08:08:14;;;;;;;4.63;3.05;;;;;;;8.25;69.84;98123.16;12738925;23;20013;-75
2023/04/08 08:13:35;;;;;;;4.72;3.10;;;;;;;8.36;68.31;98138.69;12701471;23;20364;-75
2023/04/08 08:18:57;;;;;;;4.60;2.92;;;;;;;8.13;68.42;98149.25;12676316;23;20018;-75
2023/04/08 08:24:18;;;;;;;3.38;2.80;;;;;;;8.08;68.81;98148.16;12700357;23;20025;-75
2023/04/08 08:29:39;;;;;;;5.65;3.30;;;;;;;7.97;68.80;98156.97;12700974;23;20014;-76
2023/04/08 08:35:00;;;;;;;3.85;3.38;;;;;;;7.83;68.28;98156.53;12699817;23;20024;-76
2023/04/08 08:40:22;;;;;;;8.75;4.10;;;;;;;7.81;68.68;98163.94;12700233;23;20022;-76
2023/04/08 08:45:43;;;;;;;5.63;4.22;;;;;;;7.68;69.26;98167.72;12720245;23;20013;-76
2023/04/08 08:51:10;;;;;;;8.93;5.70;;;;;;;7.79;69.14;98178.38;12720252;23;20448;-76
2023/04/08 08:56:32;;;;;;;9.95;7.13;;;;;;;7.79;68.72;98183.94;12707952;23;20017;-83
2023/04/08 09:01:53;;;;;;;11.57;7.43;;;;;;;7.72;68.81;98188.28;12682772;23;20132;-76
2023/04/08 09:07:14;;;;;;;10.93;7.15;;;;;;;7.86;69.21;98194.28;12715083;23;20456;-76
2023/04/08 09:12:34;;;;;;;11.50;7.30;;;;;;;7.92;68.80;98202.41;12702642;23;20029;-76
2023/04/08 09:17:57;;;;;;;11.50;7.35;;;;;;;7.77;68.93;98208.06;12719169;23;20018;-76
2023/04/08 09:23:56;;;;;;;11.00;7.80;;;;;;;7.72;68.70;98216.06;12719853;23;20004;31
2023/04/08 09:29:17;;;;;;;9.18;6.72;;;;;;;8.06;68.79;98227.88;12603904;23;20034;-83
2023/04/08 09:34:46;;;;;;;9.63;6.93;;;;;;;8.65;67.64;98224.47;12706370;23;20023;-82
2023/04/08 09:46:35;;;;;;;9.63;7.40;;;;;;;9.66;64.32;98226.31;12811556;23;20084;-83
2023/04/08 09:52:09;;;;;;;9.60;7.22;;;;;;;9.85;62.40;98220.88;12844376;23;20021;-80
2023/04/08 09:57:35;;;;;;;8.20;6.38;;;;;;;9.75;61.06;98228.44;12791718;23;20443;-80
2023/04/08 10:03:25;;;;;;;8.20;7.15;;;;;;;9.91;62.28;98221.31;12778248;23;20021;-81
2023/04/08 10:08:47;;;;;;;8.18;6.35;;;;;;;10.23;62.87;98233.50;12678870;23;20068;-73
2023/04/08 10:14:08;;;;;;;8.93;7.18;;;;;;;10.09;60.60;98238.72;12698019;23;20028;-73
2023/04/08 10:19:42;;;;;;;9.43;6.85;;;;;;;10.04;59.58;98236.97;12677880;23;20022;-73
2023/04/08 10:25:15;;;;;;;9.10;6.78;;;;;;;10.21;59.79;98238.91;12679329;23;20036;-77
2023/04/08 10:30:43;;;;;;;7.30;6.03;;;;;;;10.65;59.53;98230.44;12716218;23;20017;-75
2023/04/08 10:36:10;;;;;;;8.20;6.25;;;;;;;11.41;56.88;98240.19;12735972;23;20340;-74
2023/04/08 10:41:31;;;;;;;7.20;5.85;;;;;;;11.11;57.08;98247.13;12679229;23;20021;-75
2023/04/08 10:46:53;;;;;;;7.90;5.80;;;;;;;10.72;56.58;98251.91;12705477;23;20021;-76
2023/04/08 10:52:14;;;;;;;7.65;6.03;;;;;;;10.91;57.46;98247.69;12709674;23;20361;-77
2023/04/08 10:57:36;;;;;;;9.18;6.80;;;;;;;11.05;55.99;98254.31;12719775;23;20022;-75
2023/04/08 11:03:03;;;;;;;8.27;5.68;;;;;;;10.68;55.69;98262.03;12719958;23;20018;-76
2023/04/08 11:08:28;;;;;;;8.38;5.78;;;;;;;10.26;56.57;98254.69;12705472;23;20322;-76
2023/04/08 11:13:49;;;;;;;8.38;6.35;;;;;;;10.04;57.13;98253.69;12684204;23;20017;-77
2023/04/08 11:26:04;;;;;;;9.48;6.85;;;;;;;9.96;56.52;98259.38;12794883;23;20029;31
2023/04/08 11:31:26;;;;;;;10.70;7.25;;;;;;;10.02;56.08;98261.88;12741492;23;20433;-82
2023/04/08 11:36:46;;;;;;;9.15;6.40;;;;;;;10.17;55.42;98272.09;12700352;23;20306;-78
2023/04/08 11:42:28;;;;;;;7.25;5.28;;;;;;;9.81;55.31;98276.28;12717811;23;19993;31
2023/04/08 11:47:49;;;;;;;10.57;6.63;;;;;;;9.68;55.15;98268.28;12713703;23;20073;-77
2023/04/08 11:53:17;;;;;;;9.40;6.47;;;;;;;9.40;56.09;98278.66;12773775;23;20052;-78
2023/04/08 11:59:06;;;;;;;7.78;5.95;;;;;;;9.42;56.23;98276.03;12768379;23;20025;-77
2023/04/08 12:04:27;;;;;;;9.90;6.38;;;;;;;9.68;56.58;98279.44;12752550;23;20017;-78
2023/04/08 12:09:48;;;;;;;7.70;5.43;;;;;;;9.95;54.67;98273.91;12752563;23;20071;-76
2023/04/08 12:15:10;;;;;;;6.78;5.25;;;;;;;9.94;54.83;98275.94;12784157;23;20433;-76
2023/04/08 12:20:30;;;;;;;6.97;5.45;;;;;;;9.99;54.58;98272.16;12788968;23;20013;-76
2023/04/08 12:25:51;;;;;;;7.78;5.35;;;;;;;9.85;54.93;98270.31;12808479;23;20060;-83
2023/04/08 12:31:12;;;;;;;8.07;5.80;;;;;;;9.45;55.49;98269.28;12779492;23;20021;-80
2023/04/08 12:36:36;;;;;;;7.45;5.72;;;;;;;9.06;55.95;98289.78;12772689;23;20076;-81
2023/04/08 12:42:00;;;;;;;7.35;5.18;;;;;;;8.78;56.93;98293.75;12764296;23;20028;-77
2023/04/08 12:47:22;;;;;;;7.68;5.30;;;;;;;8.61;56.86;98294.47;12798155;23;20030;-81
2023/04/08 12:52:46;;;;;;;6.53;4.78;;;;;;;8.52;57.31;98300.66;12798094;23;20029;-83
2023/04/08 12:58:07;;;;;;;6.70;4.65;;;;;;;8.40;58.76;98303.16;12830241;23;20001;-84
2023/04/08 13:03:30;;;;;;;6.38;4.30;;;;;;;8.41;58.70;98306.66;12820113;23;20001;-83
2023/04/08 13:09:26;;;;;;;6.75;4.95;;;;;;;8.49;59.87;98301.75;12831741;23;20013;-85
2023/04/08 13:15:15;;;;;;;7.63;4.22;;;;;;;9.11;57.70;98305.53;12816527;23;20009;-84
2023/04/08 13:20:43;;;;;;;6.50;4.75;;;;;;;9.77;57.60;98303.88;12861880;23;20016;-83
2023/04/08 13:26:03;;;;;;;11.02;5.32;;;;;;;10.38;56.01;98305.84;12774221;23;20024;-77
2023/04/08 13:31:24;;;;;;;9.85;6.47;;;;;;;10.68;55.72;98309.47;12791465;23;20071;-78
2023/04/08 13:36:46;;;;;;;7.95;6.25;;;;;;;10.60;55.28;98313.13;12770332;23;20028;-78
2023/04/08 13:42:06;;;;;;;7.65;6.03;;;;;;;10.64;55.12;98307.13;12769847;23;20088;-78
2023/04/08 13:47:27;;;;;;;11.23;6.88;;;;;;;10.54;54.43;98309.16;12787718;23;20332;-78
2023/04/08 13:52:48;;;;;;;11.40;7.63;;;;;;;10.64;54.52;98307.13;12766369;23;20419;-78
2023/04/08 13:58:09;;;;;;;9.98;7.30;;;;;;;10.83;54.51;98309.25;12783547;23;20021;-78
2023/04/08 14:03:42;;;;;;;10.93;7.43;;;;;;;10.97;54.69;98310.31;12773367;23;20024;-77
2023/04/08 14:09:03;;;;;;;9.82;7.35;;;;;;;11.35;54.41;98312.41;12794585;23;20044;-78
2023/04/08 14:14:24;;;;;;;8.48;6.60;;;;;;;11.42;53.12;98310.81;12777783;23;20352;-78
2023/04/08 14:19:45;;;;;;;10.73;7.63;;;;;;;11.44;52.88;98316.53;12792085;23;20344;-78
2023/04/08 14:25:06;;;;;;;9.85;6.78;;;;;;;11.53;52.27;98318.59;12770543;23;20459;-75
2023/04/08 14:30:27;;;;;;;10.88;6.72;;;;;;;11.41;51.71;98317.72;12758651;23;20016;-75
2023/04/08 14:35:48;;;;;;;8.82;5.82;;;;;;;11.27;51.43;98316.66;12758736;23;20067;-75
2023/04/08 14:41:09;;;;;;;8.77;6.78;;;;;;;11.52;51.59;98317.13;12779485;23;20017;-75
2023/04/08 14:46:30;;;;;;;7.63;5.85;;;;;;;11.66;50.04;98315.34;12786544;23;20023;-78
2023/04/08 14:51:51;;;;;;;7.38;5.07;;;;;;;11.52;49.17;98324.78;12772318;23;20017;-81
2023/04/08 14:57:15;;;;;;;6.30;4.45;;;;;;;11.31;49.05;98314.19;12821368;23;20021;-79
2023/04/08 15:02:37;;;;;;;7.35;5.68;;;;;;;11.29;48.48;98328.00;12754334;23;20024;-79
2023/04/08 15:07:58;;;;;;;8.98;5.97;;;;;;;11.22;48.27;98326.09;12771459;23;20028;-79
2023/04/08 15:13:18;;;;;;;9.40;6.70;;;;;;;11.21;48.90;98333.75;12812326;23;20048;-78
2023/04/08 15:18:39;;;;;;;10.43;7.00;;;;;;;11.08;48.14;98336.94;12768666;23;20017;-78
2023/04/08 15:24:00;;;;;;;11.35;7.78;;;;;;;10.34;48.48;98341.81;12793203;23;20017;-78
2023/04/08 15:29:22;;;;;;;11.48;8.52;;;;;;;9.93;49.20;98335.81;12787475;23;20001;-86
2023/04/08 15:34:47;;;;;;;13.20;9.05;;;;;;;9.61;49.90;98349.94;12817832;23;20005;-84
2023/04/08 15:40:08;;;;;;;12.35;8.95;;;;;;;9.50;50.64;98356.03;12794728;23;20399;-79
2023/04/08 15:45:30;;;;;;;12.70;8.68;;;;;;;9.41;50.97;98349.78;12754076;23;20017;-78
2023/04/08 15:58:20;;;;;;;11.32;8.02;;;;;;;9.96;50.77;98354.19;12642202;23;20026;-76
2023/04/08 16:03:41;;;;;;;11.43;8.18;;;;;;;10.16;50.52;98363.41;12597662;23;20018;-76
2023/04/08 16:09:01;;;;;;;11.68;7.65;;;;;;;10.11;50.28;98361.63;12539850;23;20043;-74
2023/04/08 16:14:22;;;;;;;11.32;8.20;;;;;;;10.06;50.87;98365.41;12559311;23;20022;-75
2023/04/08 16:19:43;;;;;;;11.50;8.50;;;;;;;9.89;50.73;98371.75;12559712;23;20315;-74
2023/04/08 16:25:04;;;;;;;12.40;9.50;;;;;;;9.72;50.61;98380.84;12518261;23;20022;-73
2023/04/08 16:30:25;;;;;;;12.48;9.38;;;;;;;9.66;51.47;98383.16;12538834;23;20022;-75
2023/04/08 16:35:46;;;;;;;13.57;9.85;;;;;;;9.65;52.19;98383.72;12558194;23;20026;-77
2023/04/08 16:41:08;;;;;;;14.52;9.68;;;;;;;9.56;51.97;98384.41;12538890;23;20501;-76
2023/04/08 16:46:29;;;;;;;12.13;8.93;;;;;;;9.52;52.20;98384.03;12537913;23;20435;-73
2023/04/08 16:51:50;;;;;;;14.23;9.65;;;;;;;9.44;51.87;98389.69;12537320;23;20054;-76
2023/04/08 16:57:11;;;;;;;15.32;10.32;;;;;;;9.39;52.31;98399.03;12554564;23;20351;-75
2023/04/08 17:02:32;;;;;;;13.57;9.27;;;;;;;9.36;52.46;98408.53;12539091;23;20434;-76
2023/04/08 17:07:55;;;;;;;14.23;10.00;;;;;;;9.23;52.63;98409.56;12519234;23;20015;-77
2023/04/08 17:13:16;;;;;;;16.20;10.15;;;;;;;9.15;52.90;98418.00;12583357;23;20023;-78
2023/04/08 17:31:12;;;;;;;18.58;12.07;;;;;;;8.89;54.42;98438.06;12804513;23;20033;-78
2023/04/08 17:36:33;;;;;;;18.05;12.80;;;;;;;8.80;54.48;98445.00;12764539;23;20021;-82
2023/04/08 17:41:55;;;;;;;17.83;12.05;;;;;;;8.71;54.38;98445.59;12803023;23;20016;-81
2023/04/08 17:47:16;;;;;;;17.73;12.73;;;;;;;8.66;55.76;98454.16;12775002;23;20017;-82
2023/04/08 17:52:37;;;;;;;18.88;11.88;;;;;;;8.58;55.81;98460.50;12786469;23;20017;-79
2023/04/08 17:57:58;;;;;;;18.33;12.50;;;;;;;8.48;55.58;98467.22;12794712;23;20325;-82
2023/04/08 18:03:18;;;;;;;20.65;13.68;;;;;;;8.39;56.38;98476.16;12771139;23;20017;-78
2023/04/08 18:08:40;;;;;;;20.27;13.10;;;;;;;8.36;56.57;98477.31;12698327;23;20022;-78
2023/04/08 18:14:00;;;;;;;22.15;13.18;;;;;;;8.29;57.09;98484.34;12737787;23;20456;-77
2023/04/08 18:19:23;;;;;;;22.55;14.40;;;;;;;8.23;57.50;98487.34;12737914;23;20344;-78
2023/04/08 18:24:45;;;;;;;22.27;14.37;;;;;;;8.20;57.96;98494.03;12738909;23;20017;-75
2023/04/08 18:30:06;;;;;;;23.15;14.30;;;;;;;8.22;57.85;98499.78;12726474;23;20017;-78
2023/04/08 18:35:27;;;;;;;25.00;14.93;;;;;;;8.18;57.82;98518.88;12738761;23;20021;-77
2023/04/08 18:40:47;;;;;;;27.17;15.52;;;;;;;8.10;58.40;98526.47;12718697;23;20025;-77
2023/04/08 18:46:08;;;;;;;24.85;15.93;;;;;;;8.06;59.50;98520.56;12717630;23;20018;-78
2023/04/08 18:51:29;;;;;;;26.63;16.88;;;;;;;8.01;58.92;98524.31;12698085;23;20025;-78
2023/04/08 18:56:50;;;;;;;24.83;15.93;;;;;;;7.98;59.80;98531.69;12738269;23;20024;-77
2023/04/08 19:02:11;;;;;;;24.35;15.43;;;;;;;7.93;59.68;98537.47;12717189;23;20018;-78
2023/04/08 19:07:33;;;;;;;25.50;16.83;;;;;;;7.87;59.60;98543.22;12723190;23;20029;-78
2023/04/08 19:12:54;;;;;;;25.90;17.00;;;;;;;7.87;60.02;98557.09;12739061;23;20070;-78
2023/04/08 19:18:14;;;;;;;25.83;16.50;;;;;;;7.86;60.38;98558.41;12718312;23;20440;-77
2023/04/08 19:23:35;;;;;;;24.50;15.70;;;;;;;7.81;60.28;98547.47;12718256;23;20024;-78
2023/04/08 19:28:56;;;;;;;25.02;16.67;;;;;;;7.58;60.22;98526.00;12697514;23;20026;-78
2023/04/08 19:34:17;;;;;;;26.55;16.60;;;;;;;7.38;60.14;98552.66;12739061;23;20014;-77
2023/04/08 19:39:37;;;;;;;29.45;17.77;;;;;;;7.31;60.80;98552.66;12718133;23;20058;-77
2023/04/08 19:45:00;;;;;;;25.55;16.45;;;;;;;7.13;61.04;98544.09;12717789;23;20329;-78
2023/04/08 19:50:21;;;;;;;24.83;16.15;;;;;;;6.90;60.58;98559.97;12701473;23;20060;-76
2023/04/08 20:02:11;;;;;;;25.05;16.30;;;;;;;6.50;61.86;98567.94;12857226;22;20013;-84
2023/04/08 20:07:38;;;;;;;27.25;15.85;;;;;;;6.37;61.93;98577.13;12754480;23;20036;-82
2023/04/08 20:13:00;;;;;;;23.67;14.35;;;;;;;6.27;62.04;98587.22;12819602;23;20004;-81
2023/04/08 20:18:21;;;;;;;23.00;15.00;;;;;;;6.19;62.25;98583.69;12798061;23;19997;-81
2023/04/08 20:23:46;;;;;;;24.90;15.52;;;;;;;6.12;62.72;98589.91;12819707;23;20001;-80
2023/04/08 20:42:25;;;;;;;26.07;15.50;;;;;;;5.99;63.75;98585.97;12870302;22;20067;31
2023/04/08 21:06:47;;;;;;;27.73;16.70;;;;;;;5.71;64.35;98586.63;12856799;23;20017;-81
2023/04/08 21:37:12;;;;;;;22.73;14.27;;;;;;;5.37;64.82;98594.25;12884822;22;20015;-84
2023/04/08 21:42:34;;;;;;;25.02;15.88;;;;;;;5.28;65.37;98580.88;12802478;22;20056;-83
2023/04/08 21:47:55;;;;;;;27.30;17.05;;;;;;;5.29;65.33;98591.41;12839805;23;20008;-82
2023/04/08 21:53:17;;;;;;;23.73;15.68;;;;;;;5.18;65.54;98592.41;12881359;22;20005;-82
2023/04/08 22:04:55;;;;;;;24.25;16.25;;;;;;;5.02;65.96;98590.78;12896759;23;20089;-83
2023/04/08 22:10:16;;;;;;;25.08;16.00;;;;;;;5.08;66.20;98596.19;12797664;23;20005;-82
2023/04/08 22:15:38;;;;;;;24.95;15.88;;;;;;;5.08;66.09;98587.88;12773669;23;20001;-81
2023/04/08 22:20:59;;;;;;;28.63;17.40;;;;;;;5.06;66.17;98579.38;12797899;23;20021;-82
2023/04/08 22:26:21;;;;;;;22.33;16.05;;;;;;;5.05;65.85;98572.34;12838719;23;20015;-81
2023/04/08 22:31:43;;;;;;;28.30;17.90;;;;;;;4.95;66.38;98572.06;12773418;23;20035;-83
2023/04/08 22:37:05;;;;;;;24.63;16.58;;;;;;;4.89;66.71;98558.34;12811246;23;20015;-81
2023/04/08 22:42:26;;;;;;;26.42;16.73;;;;;;;4.86;67.20;98556.66;12776852;23;20025;-82
2023/04/08 22:47:47;;;;;;;24.67;16.75;;;;;;;4.81;67.36;98554.75;12792620;23;20036;-82
2023/04/08 22:53:09;;;;;;;23.20;16.08;;;;;;;4.74;67.29;98555.44;12792825;23;20017;-82
2023/04/08 22:58:31;;;;;;;30.02;17.02;;;;;;;4.76;67.50;98563.94;12837910;23;20036;-83
2023/04/08 23:03:52;;;;;;;29.33;17.58;;;;;;;4.73;67.98;98565.00;12787647;22;20012;-83
2023/04/08 23:09:16;;;;;;;26.90;17.95;;;;;;;4.74;68.01;98566.50;12833459;22;20008;-83
2023/04/08 23:27:09;;;;;;;26.80;17.10;;;;;;;4.97;67.84;98571.53;12868669;22;20039;-82
2023/04/08 23:32:32;;;;;;;26.10;16.75;;;;;;;4.88;67.88;98565.16;12858661;22;20024;-82
2023/04/08 23:37:54;;;;;;;27.60;17.13;;;;;;;4.98;67.70;98559.91;12879521;22;20012;-83
2023/04/08 23:43:15;;;;;;;28.30;17.65;;;;;;;5.14;67.47;98558.81;12900000;22;20011;-84
2023/04/08 23:48:37;;;;;;;26.35;16.58;;;;;;;5.25;67.76;98557.78;12837437;22;20069;-81
2023/04/08 23:53:58;;;;;;;26.30;16.48;;;;;;;5.38;67.41;98556.97;12858746;22;20058;-83
2023/04/08 23:59:20;;;;;;;24.75;16.00;;;;;;;5.44;67.20;98569.41;12878912;22;20048;-83
